sensor_id;sensor_type;location;lat;lon;timestamp;temperature;humidity
26278;DHT22;14000;52.056;8.510;2022-07-22T00:00:14;17.90;99.90
26278;DHT22;14000;52.056;8.510;2022-07-22T00:02:41;17.80;99.90
26278;DHT22;14000;52.056;8.510;2022-07-22T00:05:07;17.80;99.90
26278;DHT22;14000;52.056;8.510;2022-07-22T00:07:33;17.80;99.90
26278;DHT22;14000;52.056;8.510;2022-07-22T00:09:59;17.70;99.90
26278;DHT22;14000;52.056;8.510;2022-07-22T00:12:25;17.70;99.90
26278;DHT22;14000;52.056;8.510;2022-07-22T00:14:51;17.80;99.90
26278;DHT22;14000;52.056;8.510;2022-07-22T00:17:17;17.70;99.90
26278;DHT22;14000;52.056;8.510;2022-07-22T00:19:42;17.70;99.90
26278;DHT22;14000;52.056;8.510;2022-07-22T00:22:08;17.60;99.90
26278;DHT22;14000;52.056;8.510;2022-07-22T00:24:34;17.50;99.90
26278;DHT22;14000;52.056;8.510;2022-07-22T00:27:00;17.50;99.90
26278;DHT22;14000;52.056;8.510;2022-07-22T00:29:25;17.30;99.90
26278;DHT22;14000;52.056;8.510;2022-07-22T00:31:51;17.30;99.90
26278;DHT22;14000;52.056;8.510;2022-07-22T00:34:17;17.20;99.90
26278;DHT22;14000;52.056;8.510;2022-07-22T00:36:43;17.20;99.90
26278;DHT22;14000;52.056;8.510;2022-07-22T00:39:08;17.20;99.90
26278;DHT22;14000;52.056;8.510;2022-07-22T00:41:34;17.10;99.90
26278;DHT22;14000;52.056;8.510;2022-07-22T00:44:02;17.00;99.90
26278;DHT22;14000;52.056;8.510;2022-07-22T00:46:29;17.00;99.90
26278;DHT22;14000;52.056;8.510;2022-07-22T00:48:55;17.00;99.90
26278;DHT22;14000;52.056;8.510;2022-07-22T00:51:22;17.00;99.90
26278;DHT22;14000;52.056;8.510;2022-07-22T00:53:48;17.00;99.90
26278;DHT22;14000;52.056;8.510;2022-07-22T00:56:15;16.90;99.90
26278;DHT22;14000;52.056;8.510;2022-07-22T00:58:41;16.90;99.90
26278;DHT22;14000;52.056;8.510;2022-07-22T01:01:08;16.80;99.90
26278;DHT22;14000;52.056;8.510;2022-07-22T01:03:33;16.80;99.90
26278;DHT22;14000;52.056;8.510;2022-07-22T01:05:59;16.80;99.90
26278;DHT22;14000;52.056;8.510;2022-07-22T01:08:24;16.80;99.90
26278;DHT22;14000;52.056;8.510;2022-07-22T01:10:51;16.80;99.90
26278;DHT22;14000;52.056;8.510;2022-07-22T01:13:17;16.90;99.90
26278;DHT22;14000;52.056;8.510;2022-07-22T01:15:42;16.80;99.90
26278;DHT22;14000;52.056;8.510;2022-07-22T01:18:08;16.80;99.90
26278;DHT22;14000;52.056;8.510;2022-07-22T01:20:35;16.80;99.90
26278;DHT22;14000;52.056;8.510;2022-07-22T01:23:01;16.70;99.90
26278;DHT22;14000;52.056;8.510;2022-07-22T01:25:27;16.70;99.90
26278;DHT22;14000;52.056;8.510;2022-07-22T01:27:53;16.70;99.90
26278;DHT22;14000;52.056;8.510;2022-07-22T01:30:19;16.70;99.90
26278;DHT22;14000;52.056;8.510;2022-07-22T01:32:45;16.70;99.90
26278;DHT22;14000;52.056;8.510;2022-07-22T01:35:11;16.60;99.90
26278;DHT22;14000;52.056;8.510;2022-07-22T01:37:37;16.60;99.90
26278;DHT22;14000;52.056;8.510;2022-07-22T01:40:03;16.60;99.90
26278;DHT22;14000;52.056;8.510;2022-07-22T01:42:29;16.60;99.90
26278;DHT22;14000;52.056;8.510;2022-07-22T01:44:55;16.50;99.90
26278;DHT22;14000;52.056;8.510;2022-07-22T01:47:20;16.50;99.90
26278;DHT22;14000;52.056;8.510;2022-07-22T01:49:46;16.50;99.90
26278;DHT22;14000;52.056;8.510;2022-07-22T01:52:12;16.50;99.90
26278;DHT22;14000;52.056;8.510;2022-07-22T01:54:38;16.40;99.90
26278;DHT22;14000;52.056;8.510;2022-07-22T01:57:03;16.40;99.90
26278;DHT22;14000;52.056;8.510;2022-07-22T01:59:29;16.40;99.90
26278;DHT22;14000;52.056;8.510;2022-07-22T02:01:55;16.40;99.90
26278;DHT22;14000;52.056;8.510;2022-07-22T02:04:21;16.40;99.90
26278;DHT22;14000;52.056;8.510;2022-07-22T02:06:46;16.30;99.90
26278;DHT22;14000;52.056;8.510;2022-07-22T02:09:12;16.30;99.90
26278;DHT22;14000;52.056;8.510;2022-07-22T02:11:38;16.30;99.90
26278;DHT22;14000;52.056;8.510;2022-07-22T02:14:04;16.30;99.90
26278;DHT22;14000;52.056;8.510;2022-07-22T02:16:30;16.20;99.90
26278;DHT22;14000;52.056;8.510;2022-07-22T02:18:55;16.20;99.90
26278;DHT22;14000;52.056;8.510;2022-07-22T02:21:22;16.20;99.90
26278;DHT22;14000;52.056;8.510;2022-07-22T02:23:47;16.10;99.90
26278;DHT22;14000;52.056;8.510;2022-07-22T02:26:13;16.10;99.90
26278;DHT22;14000;52.056;8.510;2022-07-22T02:28:39;16.20;99.90
26278;DHT22;14000;52.056;8.510;2022-07-22T02:31:05;16.10;99.90
26278;DHT22;14000;52.056;8.510;2022-07-22T02:33:31;16.10;99.90
26278;DHT22;14000;52.056;8.510;2022-07-22T02:35:57;16.10;99.90
26278;DHT22;14000;52.056;8.510;2022-07-22T02:38:22;16.10;99.90
26278;DHT22;14000;52.056;8.510;2022-07-22T02:40:48;16.10;99.90
26278;DHT22;14000;52.056;8.510;2022-07-22T02:43:14;16.10;99.90
26278;DHT22;14000;52.056;8.510;2022-07-22T02:45:40;16.10;99.90
26278;DHT22;14000;52.056;8.510;2022-07-22T02:48:05;16.00;99.90
26278;DHT22;14000;52.056;8.510;2022-07-22T02:50:31;16.00;99.90
26278;DHT22;14000;52.056;8.510;2022-07-22T02:53:02;16.00;99.90
26278;DHT22;14000;52.056;8.510;2022-07-22T02:55:27;15.90;99.90
26278;DHT22;14000;52.056;8.510;2022-07-22T02:57:53;15.90;99.90
26278;DHT22;14000;52.056;8.510;2022-07-22T03:00:18;15.90;99.90
26278;DHT22;14000;52.056;8.510;2022-07-22T03:02:44;15.90;99.90
26278;DHT22;14000;52.056;8.510;2022-07-22T03:05:10;15.80;99.90
26278;DHT22;14000;52.056;8.510;2022-07-22T03:07:35;15.80;99.90
26278;DHT22;14000;52.056;8.510;2022-07-22T03:10:02;15.80;99.90
26278;DHT22;14000;52.056;8.510;2022-07-22T03:12:28;15.80;99.90
26278;DHT22;14000;52.056;8.510;2022-07-22T03:14:54;15.70;99.90
26278;DHT22;14000;52.056;8.510;2022-07-22T03:17:19;15.80;99.90
26278;DHT22;14000;52.056;8.510;2022-07-22T03:19:46;15.80;99.90
26278;DHT22;14000;52.056;8.510;2022-07-22T03:22:11;15.80;99.90
26278;DHT22;14000;52.056;8.510;2022-07-22T03:24:37;15.80;99.90
26278;DHT22;14000;52.056;8.510;2022-07-22T03:27:03;15.80;99.90
26278;DHT22;14000;52.056;8.510;2022-07-22T03:29:28;15.80;99.90
26278;DHT22;14000;52.056;8.510;2022-07-22T03:31:54;15.80;99.90
26278;DHT22;14000;52.056;8.510;2022-07-22T03:34:20;15.80;99.90
26278;DHT22;14000;52.056;8.510;2022-07-22T03:36:45;15.80;99.90
26278;DHT22;14000;52.056;8.510;2022-07-22T03:39:11;15.70;99.90
26278;DHT22;14000;52.056;8.510;2022-07-22T03:41:37;15.70;99.90
26278;DHT22;14000;52.056;8.510;2022-07-22T03:44:02;15.70;99.90
26278;DHT22;14000;52.056;8.510;2022-07-22T03:46:28;15.70;99.90
26278;DHT22;14000;52.056;8.510;2022-07-22T03:48:54;15.70;99.90
26278;DHT22;14000;52.056;8.510;2022-07-22T03:51:20;15.70;99.90
26278;DHT22;14000;52.056;8.510;2022-07-22T03:53:45;15.70;99.90
26278;DHT22;14000;52.056;8.510;2022-07-22T03:56:11;15.80;99.90
26278;DHT22;14000;52.056;8.510;2022-07-22T03:58:37;15.70;99.90
26278;DHT22;14000;52.056;8.510;2022-07-22T04:01:02;15.80;99.90
26278;DHT22;14000;52.056;8.510;2022-07-22T04:03:28;15.80;99.90
26278;DHT22;14000;52.056;8.510;2022-07-22T04:05:54;15.70;99.90
26278;DHT22;14000;52.056;8.510;2022-07-22T04:08:19;15.80;99.90
26278;DHT22;14000;52.056;8.510;2022-07-22T04:10:45;15.80;99.90
26278;DHT22;14000;52.056;8.510;2022-07-22T04:13:11;15.80;99.90
26278;DHT22;14000;52.056;8.510;2022-07-22T04:15:37;15.80;99.90
26278;DHT22;14000;52.056;8.510;2022-07-22T04:18:03;15.80;99.90
26278;DHT22;14000;52.056;8.510;2022-07-22T04:20:29;15.70;99.90
26278;DHT22;14000;52.056;8.510;2022-07-22T04:22:54;15.70;99.90
26278;DHT22;14000;52.056;8.510;2022-07-22T04:25:20;15.70;99.90
26278;DHT22;14000;52.056;8.510;2022-07-22T04:27:46;15.70;99.90
26278;DHT22;14000;52.056;8.510;2022-07-22T04:30:12;15.70;99.90
26278;DHT22;14000;52.056;8.510;2022-07-22T04:32:37;15.80;99.90
26278;DHT22;14000;52.056;8.510;2022-07-22T04:35:04;15.70;99.90
26278;DHT22;14000;52.056;8.510;2022-07-22T04:37:30;15.80;99.90
26278;DHT22;14000;52.056;8.510;2022-07-22T04:39:56;15.70;99.90
26278;DHT22;14000;52.056;8.510;2022-07-22T04:42:22;15.70;99.90
26278;DHT22;14000;52.056;8.510;2022-07-22T04:44:47;15.70;99.90
26278;DHT22;14000;52.056;8.510;2022-07-22T04:47:13;15.80;99.90
26278;DHT22;14000;52.056;8.510;2022-07-22T04:49:39;15.80;99.90
26278;DHT22;14000;52.056;8.510;2022-07-22T04:52:05;15.80;99.90
26278;DHT22;14000;52.056;8.510;2022-07-22T04:54:30;15.70;99.90
26278;DHT22;14000;52.056;8.510;2022-07-22T04:56:56;15.70;99.90
26278;DHT22;14000;52.056;8.510;2022-07-22T04:59:22;15.70;99.90
26278;DHT22;14000;52.056;8.510;2022-07-22T05:01:48;15.70;99.90
26278;DHT22;14000;52.056;8.510;2022-07-22T05:04:13;15.70;99.90
26278;DHT22;14000;52.056;8.510;2022-07-22T05:06:39;15.70;99.90
26278;DHT22;14000;52.056;8.510;2022-07-22T05:09:04;15.70;99.90
26278;DHT22;14000;52.056;8.510;2022-07-22T05:11:30;15.80;99.90
26278;DHT22;14000;52.056;8.510;2022-07-22T05:13:56;15.80;99.90
26278;DHT22;14000;52.056;8.510;2022-07-22T05:16:22;15.80;99.90
26278;DHT22;14000;52.056;8.510;2022-07-22T05:18:47;15.80;99.90
26278;DHT22;14000;52.056;8.510;2022-07-22T05:21:13;15.80;99.90
26278;DHT22;14000;52.056;8.510;2022-07-22T05:23:39;15.80;99.90
26278;DHT22;14000;52.056;8.510;2022-07-22T05:26:05;15.80;99.90
26278;DHT22;14000;52.056;8.510;2022-07-22T05:28:31;15.80;99.90
26278;DHT22;14000;52.056;8.510;2022-07-22T05:30:57;15.80;99.90
26278;DHT22;14000;52.056;8.510;2022-07-22T05:33:22;15.80;99.90
26278;DHT22;14000;52.056;8.510;2022-07-22T05:35:48;15.80;99.90
26278;DHT22;14000;52.056;8.510;2022-07-22T05:38:14;15.80;99.90
26278;DHT22;14000;52.056;8.510;2022-07-22T05:40:40;15.80;99.90
26278;DHT22;14000;52.056;8.510;2022-07-22T05:43:05;15.80;99.90
26278;DHT22;14000;52.056;8.510;2022-07-22T05:45:31;15.90;99.90
26278;DHT22;14000;52.056;8.510;2022-07-22T05:47:57;15.90;99.90
26278;DHT22;14000;52.056;8.510;2022-07-22T05:50:22;15.90;99.90
26278;DHT22;14000;52.056;8.510;2022-07-22T05:52:48;15.90;99.90
26278;DHT22;14000;52.056;8.510;2022-07-22T05:55:14;15.90;99.90
26278;DHT22;14000;52.056;8.510;2022-07-22T05:57:39;15.90;99.90
26278;DHT22;14000;52.056;8.510;2022-07-22T06:00:06;15.90;99.90
26278;DHT22;14000;52.056;8.510;2022-07-22T06:02:32;15.90;99.90
26278;DHT22;14000;52.056;8.510;2022-07-22T06:04:58;15.90;99.90
26278;DHT22;14000;52.056;8.510;2022-07-22T06:07:26;15.90;99.90
26278;DHT22;14000;52.056;8.510;2022-07-22T06:09:52;15.90;99.90
26278;DHT22;14000;52.056;8.510;2022-07-22T06:12:19;15.90;99.90
26278;DHT22;14000;52.056;8.510;2022-07-22T06:14:45;16.00;99.90
26278;DHT22;14000;52.056;8.510;2022-07-22T06:17:12;16.00;99.90
26278;DHT22;14000;52.056;8.510;2022-07-22T06:19:37;16.00;99.90
26278;DHT22;14000;52.056;8.510;2022-07-22T06:22:03;16.00;99.90
26278;DHT22;14000;52.056;8.510;2022-07-22T06:24:29;16.10;99.90
26278;DHT22;14000;52.056;8.510;2022-07-22T06:26:54;16.10;99.90
26278;DHT22;14000;52.056;8.510;2022-07-22T06:29:20;16.10;99.90
26278;DHT22;14000;52.056;8.510;2022-07-22T06:31:46;16.10;99.90
26278;DHT22;14000;52.056;8.510;2022-07-22T06:34:11;16.20;99.90
26278;DHT22;14000;52.056;8.510;2022-07-22T06:36:37;16.10;99.90
26278;DHT22;14000;52.056;8.510;2022-07-22T06:39:03;16.10;99.90
26278;DHT22;14000;52.056;8.510;2022-07-22T06:41:28;16.10;99.90
26278;DHT22;14000;52.056;8.510;2022-07-22T06:43:54;16.10;99.90
26278;DHT22;14000;52.056;8.510;2022-07-22T06:46:20;16.10;99.90
26278;DHT22;14000;52.056;8.510;2022-07-22T06:48:45;16.10;99.90
26278;DHT22;14000;52.056;8.510;2022-07-22T06:51:11;16.10;99.90
26278;DHT22;14000;52.056;8.510;2022-07-22T06:53:37;16.00;99.90
26278;DHT22;14000;52.056;8.510;2022-07-22T06:56:03;16.00;99.90
26278;DHT22;14000;52.056;8.510;2022-07-22T06:58:28;15.90;99.90
26278;DHT22;14000;52.056;8.510;2022-07-22T07:00:54;15.90;99.90
26278;DHT22;14000;52.056;8.510;2022-07-22T07:03:21;16.00;99.90
26278;DHT22;14000;52.056;8.510;2022-07-22T07:05:48;16.00;99.90
26278;DHT22;14000;52.056;8.510;2022-07-22T07:08:14;16.00;99.90
26278;DHT22;14000;52.056;8.510;2022-07-22T07:10:39;16.00;99.90
26278;DHT22;14000;52.056;8.510;2022-07-22T07:13:05;16.00;99.90
26278;DHT22;14000;52.056;8.510;2022-07-22T07:15:31;16.10;99.90
26278;DHT22;14000;52.056;8.510;2022-07-22T07:17:56;16.10;99.90
26278;DHT22;14000;52.056;8.510;2022-07-22T07:20:23;16.10;99.90
26278;DHT22;14000;52.056;8.510;2022-07-22T07:22:50;16.10;99.90
26278;DHT22;14000;52.056;8.510;2022-07-22T07:25:15;16.20;99.90
26278;DHT22;14000;52.056;8.510;2022-07-22T07:27:41;16.20;99.90
26278;DHT22;14000;52.056;8.510;2022-07-22T07:30:08;16.30;99.90
26278;DHT22;14000;52.056;8.510;2022-07-22T07:32:37;16.20;99.90
26278;DHT22;14000;52.056;8.510;2022-07-22T07:35:04;16.30;99.90
26278;DHT22;14000;52.056;8.510;2022-07-22T07:37:30;16.40;99.90
26278;DHT22;14000;52.056;8.510;2022-07-22T07:39:57;16.40;99.90
26278;DHT22;14000;52.056;8.510;2022-07-22T07:42:23;16.50;99.90
26278;DHT22;14000;52.056;8.510;2022-07-22T07:44:48;16.60;99.90
26278;DHT22;14000;52.056;8.510;2022-07-22T07:47:14;16.70;99.90
26278;DHT22;14000;52.056;8.510;2022-07-22T07:49:44;16.70;99.90
26278;DHT22;14000;52.056;8.510;2022-07-22T07:52:10;16.60;99.90
26278;DHT22;14000;52.056;8.510;2022-07-22T07:54:38;16.50;99.90
26278;DHT22;14000;52.056;8.510;2022-07-22T07:57:04;16.50;99.90
26278;DHT22;14000;52.056;8.510;2022-07-22T07:59:31;16.50;99.90
26278;DHT22;14000;52.056;8.510;2022-07-22T08:01:57;16.50;99.90
26278;DHT22;14000;52.056;8.510;2022-07-22T08:04:22;16.50;99.90
26278;DHT22;14000;52.056;8.510;2022-07-22T08:06:48;16.60;99.90
26278;DHT22;14000;52.056;8.510;2022-07-22T08:09:14;16.80;99.90
26278;DHT22;14000;52.056;8.510;2022-07-22T08:11:39;16.80;99.90
26278;DHT22;14000;52.056;8.510;2022-07-22T08:14:05;17.00;99.90
26278;DHT22;14000;52.056;8.510;2022-07-22T08:16:31;17.10;99.90
26278;DHT22;14000;52.056;8.510;2022-07-22T08:18:56;17.20;99.90
26278;DHT22;14000;52.056;8.510;2022-07-22T08:21:22;17.30;99.90
26278;DHT22;14000;52.056;8.510;2022-07-22T08:23:48;17.30;99.90
26278;DHT22;14000;52.056;8.510;2022-07-22T08:26:14;17.30;99.90
26278;DHT22;14000;52.056;8.510;2022-07-22T08:28:39;17.30;99.90
26278;DHT22;14000;52.056;8.510;2022-07-22T08:31:05;17.30;99.90
26278;DHT22;14000;52.056;8.510;2022-07-22T08:33:30;17.30;99.90
26278;DHT22;14000;52.056;8.510;2022-07-22T08:35:56;17.50;99.90
26278;DHT22;14000;52.056;8.510;2022-07-22T08:38:22;17.30;99.90
26278;DHT22;14000;52.056;8.510;2022-07-22T08:40:48;17.30;99.90
26278;DHT22;14000;52.056;8.510;2022-07-22T08:43:14;17.30;99.90
26278;DHT22;14000;52.056;8.510;2022-07-22T08:45:40;17.30;99.90
26278;DHT22;14000;52.056;8.510;2022-07-22T08:48:06;17.30;99.90
26278;DHT22;14000;52.056;8.510;2022-07-22T08:50:32;17.40;99.90
26278;DHT22;14000;52.056;8.510;2022-07-22T08:52:58;17.50;99.90
26278;DHT22;14000;52.056;8.510;2022-07-22T08:55:24;17.50;99.90
26278;DHT22;14000;52.056;8.510;2022-07-22T08:57:50;17.70;99.90
26278;DHT22;14000;52.056;8.510;2022-07-22T09:00:19;17.70;99.90
26278;DHT22;14000;52.056;8.510;2022-07-22T09:02:46;17.90;99.90
26278;DHT22;14000;52.056;8.510;2022-07-22T09:05:13;17.80;99.90
26278;DHT22;14000;52.056;8.510;2022-07-22T09:07:42;17.90;99.90
26278;DHT22;14000;52.056;8.510;2022-07-22T09:10:10;17.90;99.90
26278;DHT22;14000;52.056;8.510;2022-07-22T09:12:51;17.90;99.90
26278;DHT22;14000;52.056;8.510;2022-07-22T09:15:46;17.90;99.90
26278;DHT22;14000;52.056;8.510;2022-07-22T09:18:10;17.90;99.90
26278;DHT22;14000;52.056;8.510;2022-07-22T09:20:37;18.10;99.90
26278;DHT22;14000;52.056;8.510;2022-07-22T09:23:09;18.20;99.90
26278;DHT22;14000;52.056;8.510;2022-07-22T09:25:37;18.40;99.90
26278;DHT22;14000;52.056;8.510;2022-07-22T09:30:34;18.40;99.90
26278;DHT22;14000;52.056;8.510;2022-07-22T09:33:00;18.30;99.90
26278;DHT22;14000;52.056;8.510;2022-07-22T09:35:26;18.20;99.90
26278;DHT22;14000;52.056;8.510;2022-07-22T09:37:58;18.20;99.90
26278;DHT22;14000;52.056;8.510;2022-07-22T09:40:26;18.00;99.90
26278;DHT22;14000;52.056;8.510;2022-07-22T09:42:55;18.00;99.90
26278;DHT22;14000;52.056;8.510;2022-07-22T09:45:23;18.10;99.90
26278;DHT22;14000;52.056;8.510;2022-07-22T09:47:50;18.10;99.90
26278;DHT22;14000;52.056;8.510;2022-07-22T09:50:21;18.20;99.90
26278;DHT22;14000;52.056;8.510;2022-07-22T09:52:48;18.30;99.90
26278;DHT22;14000;52.056;8.510;2022-07-22T09:55:16;18.40;99.90
26278;DHT22;14000;52.056;8.510;2022-07-22T09:57:43;18.30;99.90
26278;DHT22;14000;52.056;8.510;2022-07-22T10:00:10;18.30;99.90
26278;DHT22;14000;52.056;8.510;2022-07-22T10:02:47;18.30;99.90
26278;DHT22;14000;52.056;8.510;2022-07-22T10:05:15;18.30;99.90
26278;DHT22;14000;52.056;8.510;2022-07-22T10:07:42;18.30;99.90
26278;DHT22;14000;52.056;8.510;2022-07-22T10:10:10;18.30;99.90
26278;DHT22;14000;52.056;8.510;2022-07-22T10:12:37;18.20;99.90
26278;DHT22;14000;52.056;8.510;2022-07-22T10:15:04;18.20;99.90
26278;DHT22;14000;52.056;8.510;2022-07-22T10:17:31;18.30;99.90
26278;DHT22;14000;52.056;8.510;2022-07-22T10:19:57;18.20;99.90
26278;DHT22;14000;52.056;8.510;2022-07-22T10:25:08;18.20;99.90
26278;DHT22;14000;52.056;8.510;2022-07-22T10:30:42;18.10;99.90
26278;DHT22;14000;52.056;8.510;2022-07-22T10:33:15;18.10;99.90
26278;DHT22;14000;52.056;8.510;2022-07-22T10:38:10;18.00;99.90
26278;DHT22;14000;52.056;8.510;2022-07-22T10:41:00;18.10;99.90
26278;DHT22;14000;52.056;8.510;2022-07-22T10:43:47;18.10;99.90
26278;DHT22;14000;52.056;8.510;2022-07-22T10:46:14;18.20;99.90
26278;DHT22;14000;52.056;8.510;2022-07-22T10:51:09;18.20;99.90
26278;DHT22;14000;52.056;8.510;2022-07-22T10:56:28;18.20;99.90
26278;DHT22;14000;52.056;8.510;2022-07-22T11:01:27;18.00;99.90
26278;DHT22;14000;52.056;8.510;2022-07-22T11:03:55;18.00;99.90
26278;DHT22;14000;52.056;8.510;2022-07-22T11:06:22;18.00;99.90
26278;DHT22;14000;52.056;8.510;2022-07-22T11:08:54;18.10;99.90
26278;DHT22;14000;52.056;8.510;2022-07-22T11:11:32;18.10;99.90
26278;DHT22;14000;52.056;8.510;2022-07-22T11:13:59;18.00;99.90
26278;DHT22;14000;52.056;8.510;2022-07-22T11:16:26;18.00;99.90
26278;DHT22;14000;52.056;8.510;2022-07-22T11:19:00;18.00;99.90
26278;DHT22;14000;52.056;8.510;2022-07-22T11:21:32;18.00;99.90
26278;DHT22;14000;52.056;8.510;2022-07-22T11:24:00;18.00;99.90
26278;DHT22;14000;52.056;8.510;2022-07-22T11:26:42;17.90;99.90
26278;DHT22;14000;52.056;8.510;2022-07-22T11:29:10;17.80;99.90
26278;DHT22;14000;52.056;8.510;2022-07-22T11:31:40;17.60;99.90
26278;DHT22;14000;52.056;8.510;2022-07-22T11:34:07;17.70;99.90
26278;DHT22;14000;52.056;8.510;2022-07-22T11:36:34;17.80;99.90
26278;DHT22;14000;52.056;8.510;2022-07-22T11:39:00;17.90;99.90
26278;DHT22;14000;52.056;8.510;2022-07-22T11:41:29;18.00;99.90
26278;DHT22;14000;52.056;8.510;2022-07-22T11:43:55;18.10;99.90
26278;DHT22;14000;52.056;8.510;2022-07-22T11:46:20;18.10;99.90
26278;DHT22;14000;52.056;8.510;2022-07-22T11:48:46;18.20;99.90
26278;DHT22;14000;52.056;8.510;2022-07-22T11:51:13;18.30;99.90
26278;DHT22;14000;52.056;8.510;2022-07-22T11:53:40;18.30;99.90
26278;DHT22;14000;52.056;8.510;2022-07-22T11:56:08;18.30;99.90
26278;DHT22;14000;52.056;8.510;2022-07-22T11:58:45;18.40;99.90
26278;DHT22;14000;52.056;8.510;2022-07-22T12:01:13;18.40;99.90
26278;DHT22;14000;52.056;8.510;2022-07-22T12:03:48;18.40;99.90
26278;DHT22;14000;52.056;8.510;2022-07-22T12:06:16;18.40;99.90
26278;DHT22;14000;52.056;8.510;2022-07-22T12:08:48;18.50;99.90
26278;DHT22;14000;52.056;8.510;2022-07-22T12:11:16;18.50;99.90
26278;DHT22;14000;52.056;8.510;2022-07-22T12:13:43;18.50;99.90
26278;DHT22;14000;52.056;8.510;2022-07-22T12:16:26;18.50;99.90
26278;DHT22;14000;52.056;8.510;2022-07-22T12:19:12;18.40;99.90
26278;DHT22;14000;52.056;8.510;2022-07-22T12:22:00;18.50;99.90
26278;DHT22;14000;52.056;8.510;2022-07-22T12:27:01;18.50;99.90
26278;DHT22;14000;52.056;8.510;2022-07-22T12:35:00;18.70;99.90
26278;DHT22;14000;52.056;8.510;2022-07-22T12:40:05;18.70;99.90
26278;DHT22;14000;52.056;8.510;2022-07-22T12:42:41;18.70;99.90
26278;DHT22;14000;52.056;8.510;2022-07-22T12:45:09;18.80;99.90
26278;DHT22;14000;52.056;8.510;2022-07-22T12:47:48;18.80;99.90
26278;DHT22;14000;52.056;8.510;2022-07-22T12:50:27;18.80;99.90
26278;DHT22;14000;52.056;8.510;2022-07-22T12:53:06;18.80;99.90
26278;DHT22;14000;52.056;8.510;2022-07-22T12:55:34;18.90;99.90
26278;DHT22;14000;52.056;8.510;2022-07-22T12:58:01;19.00;99.90
26278;DHT22;14000;52.056;8.510;2022-07-22T13:00:29;19.10;99.90
26278;DHT22;14000;52.056;8.510;2022-07-22T13:02:55;18.90;99.90
26278;DHT22;14000;52.056;8.510;2022-07-22T13:05:22;18.80;99.90
26278;DHT22;14000;52.056;8.510;2022-07-22T13:07:48;18.70;99.90
26278;DHT22;14000;52.056;8.510;2022-07-22T13:10:14;18.70;99.90
26278;DHT22;14000;52.056;8.510;2022-07-22T13:12:40;18.80;99.90
26278;DHT22;14000;52.056;8.510;2022-07-22T13:15:07;18.90;99.90
26278;DHT22;14000;52.056;8.510;2022-07-22T13:17:33;19.00;99.90
26278;DHT22;14000;52.056;8.510;2022-07-22T13:19:59;18.90;99.90
26278;DHT22;14000;52.056;8.510;2022-07-22T13:22:25;19.00;99.90
26278;DHT22;14000;52.056;8.510;2022-07-22T13:24:50;19.00;99.90
26278;DHT22;14000;52.056;8.510;2022-07-22T13:27:16;19.00;99.90
26278;DHT22;14000;52.056;8.510;2022-07-22T13:29:42;19.00;99.90
26278;DHT22;14000;52.056;8.510;2022-07-22T13:32:08;19.00;99.90
26278;DHT22;14000;52.056;8.510;2022-07-22T13:34:34;19.00;99.90
26278;DHT22;14000;52.056;8.510;2022-07-22T13:37:01;19.00;99.90
26278;DHT22;14000;52.056;8.510;2022-07-22T13:39:27;18.90;99.90
26278;DHT22;14000;52.056;8.510;2022-07-22T13:41:53;18.90;99.90
26278;DHT22;14000;52.056;8.510;2022-07-22T13:44:19;18.90;99.90
26278;DHT22;14000;52.056;8.510;2022-07-22T13:46:45;18.80;99.90
26278;DHT22;14000;52.056;8.510;2022-07-22T13:49:11;18.80;99.90
26278;DHT22;14000;52.056;8.510;2022-07-22T13:51:37;18.90;99.90
26278;DHT22;14000;52.056;8.510;2022-07-22T13:54:03;18.80;99.90
26278;DHT22;14000;52.056;8.510;2022-07-22T13:56:33;18.90;99.90
26278;DHT22;14000;52.056;8.510;2022-07-22T13:59:00;19.00;99.90
26278;DHT22;14000;52.056;8.510;2022-07-22T14:01:26;19.00;99.90
26278;DHT22;14000;52.056;8.510;2022-07-22T14:03:52;19.10;99.90
26278;DHT22;14000;52.056;8.510;2022-07-22T14:06:18;19.00;99.90
26278;DHT22;14000;52.056;8.510;2022-07-22T14:08:43;19.00;99.90
26278;DHT22;14000;52.056;8.510;2022-07-22T14:11:09;19.10;99.90
26278;DHT22;14000;52.056;8.510;2022-07-22T14:13:35;19.00;99.90
26278;DHT22;14000;52.056;8.510;2022-07-22T14:16:00;18.90;99.90
26278;DHT22;14000;52.056;8.510;2022-07-22T14:18:46;19.00;99.90
26278;DHT22;14000;52.056;8.510;2022-07-22T14:21:12;19.00;99.90
26278;DHT22;14000;52.056;8.510;2022-07-22T14:23:38;19.00;99.90
26278;DHT22;14000;52.056;8.510;2022-07-22T14:26:04;19.10;99.90
26278;DHT22;14000;52.056;8.510;2022-07-22T14:28:30;19.20;99.90
26278;DHT22;14000;52.056;8.510;2022-07-22T14:30:56;19.20;99.90
26278;DHT22;14000;52.056;8.510;2022-07-22T14:33:22;19.30;99.90
26278;DHT22;14000;52.056;8.510;2022-07-22T14:35:48;19.40;99.90
26278;DHT22;14000;52.056;8.510;2022-07-22T14:38:13;19.40;99.90
26278;DHT22;14000;52.056;8.510;2022-07-22T14:40:39;19.30;99.90
26278;DHT22;14000;52.056;8.510;2022-07-22T14:43:05;18.50;99.90
26278;DHT22;14000;52.056;8.510;2022-07-22T14:45:30;19.30;99.90
26278;DHT22;14000;52.056;8.510;2022-07-22T14:47:56;19.30;99.90
26278;DHT22;14000;52.056;8.510;2022-07-22T14:50:21;19.30;99.90
26278;DHT22;14000;52.056;8.510;2022-07-22T14:52:47;19.10;99.90
26278;DHT22;14000;52.056;8.510;2022-07-22T14:55:13;19.00;99.90
26278;DHT22;14000;52.056;8.510;2022-07-22T14:57:39;18.90;99.90
26278;DHT22;14000;52.056;8.510;2022-07-22T15:00:05;18.90;99.90
26278;DHT22;14000;52.056;8.510;2022-07-22T15:02:32;18.80;99.90
26278;DHT22;14000;52.056;8.510;2022-07-22T15:04:57;18.80;99.90
26278;DHT22;14000;52.056;8.510;2022-07-22T15:07:23;18.90;99.90
26278;DHT22;14000;52.056;8.510;2022-07-22T15:09:49;18.80;99.90
26278;DHT22;14000;52.056;8.510;2022-07-22T15:12:14;18.80;99.90
26278;DHT22;14000;52.056;8.510;2022-07-22T15:14:40;18.80;99.90
26278;DHT22;14000;52.056;8.510;2022-07-22T15:17:06;18.80;99.90
26278;DHT22;14000;52.056;8.510;2022-07-22T15:19:31;18.70;99.90
26278;DHT22;14000;52.056;8.510;2022-07-22T15:21:57;18.70;99.90
26278;DHT22;14000;52.056;8.510;2022-07-22T15:24:23;18.60;99.90
26278;DHT22;14000;52.056;8.510;2022-07-22T15:26:50;18.60;99.90
26278;DHT22;14000;52.056;8.510;2022-07-22T15:29:16;18.50;99.90
26278;DHT22;14000;52.056;8.510;2022-07-22T15:31:42;18.60;99.90
26278;DHT22;14000;52.056;8.510;2022-07-22T15:34:08;18.60;99.90
26278;DHT22;14000;52.056;8.510;2022-07-22T15:36:33;18.50;99.90
26278;DHT22;14000;52.056;8.510;2022-07-22T15:38:59;18.70;99.90
26278;DHT22;14000;52.056;8.510;2022-07-22T15:41:25;18.70;99.90
26278;DHT22;14000;52.056;8.510;2022-07-22T15:43:51;18.70;99.90
26278;DHT22;14000;52.056;8.510;2022-07-22T15:46:16;18.80;99.90
26278;DHT22;14000;52.056;8.510;2022-07-22T15:48:42;18.80;99.90
26278;DHT22;14000;52.056;8.510;2022-07-22T15:51:08;18.90;99.90
26278;DHT22;14000;52.056;8.510;2022-07-22T15:53:34;19.00;99.90
26278;DHT22;14000;52.056;8.510;2022-07-22T15:56:00;19.00;99.90